Time;durP1;ratioP1;P1;durP2;ratioP2;P2;SDS_P1;SDS_P2;PMS_P1;PMS_P2;Temp;Humidity;BMP_temperature;BMP_pressure;BME280_temperature;BME280_humidity;BME280_pressure;Samples;Min_cycle;Max_cycle;Signal;HPM_P1;HPM_P2
2022/04/30 04:05:52;;;;;;;17.37;15.60;;;5.90;99.90;;;;;;5041645;23;20246;-79
2022/04/30 04:08:21;;;;;;;16.53;14.93;;;5.90;99.90;;;;;;4877347;29;20245;-79
2022/04/30 04:10:49;;;;;;;17.33;15.53;;;5.90;99.90;;;;;;4873953;29;20202;-77
2022/04/30 04:18:51;;;;;;;17.47;15.67;;;5.90;99.90;;;;;;4897585;29;20213;-75
2022/04/30 04:21:22;;;;;;;17.97;16.07;;;5.90;99.90;;;;;;4903031;29;20209;-77
2022/04/30 04:26:36;;;;;;;18.03;16.13;;;6.00;99.90;;;;;;4915798;29;20261;-76
2022/04/30 04:29:04;;;;;;;18.17;16.33;;;6.00;99.90;;;;;;4898832;29;20220;-78
2022/04/30 04:31:32;;;;;;;18.47;16.67;;;6.00;99.90;;;;;;4896786;29;20710;-77
2022/04/30 04:34:00;;;;;;;18.23;16.43;;;6.10;99.90;;;;;;4896857;29;20244;-77
2022/04/30 04:36:30;;;;;;;17.73;15.80;;;6.10;99.90;;;;;;4897185;29;20213;-77
2022/04/30 04:38:58;;;;;;;17.53;15.40;;;6.10;99.90;;;;;;4897119;29;20220;-79
2022/04/30 04:41:26;;;;;;;17.20;15.47;;;6.10;99.90;;;;;;4896932;29;20251;-79
2022/04/30 04:43:54;;;;;;;18.37;14.97;;;6.20;99.90;;;;;;4900338;29;20249;-77
2022/04/30 04:46:22;;;;;;;17.07;15.27;;;6.30;99.90;;;;;;4900454;29;20253;-77
2022/04/30 04:48:50;;;;;;;17.97;15.83;;;6.30;99.90;;;;;;4900526;29;20233;-76
2022/04/30 04:51:18;;;;;;;17.40;15.50;;;6.40;99.90;;;;;;4900581;29;20295;-78
2022/04/30 04:53:48;;;;;;;17.57;15.87;;;6.50;99.90;;;;;;4900281;29;20782;-79
2022/04/30 04:56:16;;;;;;;17.83;15.70;;;6.60;99.90;;;;;;4900448;29;20675;-78
2022/04/30 04:58:44;;;;;;;18.77;16.30;;;6.70;99.90;;;;;;4891798;29;20305;-79
2022/04/30 05:01:12;;;;;;;16.90;15.10;;;6.90;99.90;;;;;;4894601;29;20246;-78
2022/04/30 05:03:40;;;;;;;17.60;15.77;;;7.00;99.90;;;;;;4878779;29;20210;-76
2022/04/30 05:06:09;;;;;;;17.23;15.53;;;7.10;99.90;;;;;;4867986;29;20302;-78
2022/04/30 05:08:37;;;;;;;16.27;14.67;;;7.20;99.90;;;;;;4881429;29;20229;-76
2022/04/30 05:11:06;;;;;;;15.90;14.40;;;7.40;99.90;;;;;;4862636;29;20264;-76
2022/04/30 05:13:34;;;;;;;16.90;15.30;;;7.50;99.90;;;;;;4863115;29;20253;-76
2022/04/30 05:16:03;;;;;;;16.80;15.00;;;7.60;99.90;;;;;;4893177;29;20234;-76
2022/04/30 05:18:31;;;;;;;17.37;15.10;;;7.70;99.90;;;;;;4900218;29;20569;-76
2022/04/30 05:20:59;;;;;;;16.67;15.00;;;7.70;99.90;;;;;;4895126;29;20615;-77
2022/04/30 05:23:27;;;;;;;17.03;15.23;;;7.70;99.90;;;;;;4897170;29;20229;-77
2022/04/30 05:25:55;;;;;;;17.00;15.30;;;7.90;99.90;;;;;;4899661;29;20241;-77
2022/04/30 05:28:25;;;;;;;16.20;14.50;;;8.00;99.90;;;;;;4899917;29;20296;-76
2022/04/30 05:30:53;;;;;;;15.47;13.90;;;8.20;99.90;;;;;;4888114;29;20239;-76
2022/04/30 05:33:22;;;;;;;16.30;14.63;;;8.30;99.90;;;;;;4864715;29;20234;-77
2022/04/30 05:35:50;;;;;;;15.63;13.90;;;8.40;99.90;;;;;;4862746;29;20290;-76
2022/04/30 05:38:18;;;;;;;15.90;14.30;;;8.50;99.90;;;;;;4879533;29;20734;-76
2022/04/30 05:40:46;;;;;;;15.33;13.83;;;8.60;99.90;;;;;;4881571;29;20648;-77
2022/04/30 05:43:14;;;;;;;16.23;13.10;;;8.80;99.90;;;;;;4866060;29;20330;-79
2022/04/30 05:45:44;;;;;;;15.17;13.70;;;9.10;99.90;;;;;;4862794;29;20243;-76
2022/04/30 05:48:12;;;;;;;15.83;13.67;;;9.20;99.90;;;;;;4863077;29;20237;-75
2022/04/30 05:50:40;;;;;;;16.13;14.07;;;9.40;99.90;;;;;;4862307;29;20685;-77
2022/04/30 05:53:08;;;;;;;14.47;12.97;;;9.50;99.90;;;;;;4861569;29;20216;-76
2022/04/30 05:55:36;;;;;;;14.47;12.97;;;9.60;99.90;;;;;;4861299;29;20726;-76
2022/04/30 05:58:04;;;;;;;14.63;13.13;;;9.80;99.90;;;;;;4876216;29;20246;-77
2022/04/30 06:00:33;;;;;;;16.43;12.57;;;9.80;99.90;;;;;;4878008;29;20242;-78
2022/04/30 06:03:02;;;;;;;16.23;12.67;;;9.90;99.90;;;;;;4862130;29;20780;-75
2022/04/30 06:05:31;;;;;;;14.23;12.73;;;10.00;99.90;;;;;;4861758;29;20239;-77
2022/04/30 06:08:00;;;;;;;16.03;13.10;;;10.00;99.90;;;;;;4862576;29;20290;-76
2022/04/30 06:10:28;;;;;;;13.70;12.30;;;10.10;99.90;;;;;;4863000;29;20210;-77
2022/04/30 06:13:03;;;;;;;15.43;12.47;;;10.10;99.90;;;;;;4862087;29;20645;-74
2022/04/30 06:15:31;;;;;;;13.23;11.70;;;10.20;99.90;;;;;;4862111;29;20283;-77
2022/04/30 06:18:01;;;;;;;13.10;11.73;;;10.20;99.90;;;;;;4862104;29;20211;-77
2022/04/30 06:20:31;;;;;;;13.13;11.83;;;10.10;99.90;;;;;;4861807;29;20219;-75
2022/04/30 06:22:59;;;;;;;14.43;11.87;;;10.10;99.90;;;;;;4862370;29;20310;-77
2022/04/30 06:25:27;;;;;;;14.57;11.27;;;10.20;99.90;;;;;;4871544;29;20216;-77
2022/04/30 06:27:55;;;;;;;14.20;10.73;;;10.20;99.90;;;;;;4899313;29;20241;-77
2022/04/30 06:30:23;;;;;;;12.03;10.93;;;10.20;99.90;;;;;;4891892;29;20293;-76
2022/04/30 06:32:52;;;;;;;12.27;10.63;;;10.40;99.90;;;;;;4879915;29;20633;-77
2022/04/30 06:35:21;;;;;;;12.43;10.67;;;10.60;99.90;;;;;;4881065;29;20265;-78
2022/04/30 06:37:49;;;;;;;14.17;11.50;;;10.80;99.90;;;;;;4880455;29;20242;-77
2022/04/30 06:40:17;;;;;;;12.33;11.03;;;10.90;99.90;;;;;;4876694;29;20218;-77
2022/04/30 06:42:45;;;;;;;15.13;11.70;;;11.50;99.90;;;;;;4861455;29;20642;-79
2022/04/30 06:45:16;;;;;;;13.40;12.10;;;11.90;99.90;;;;;;4861332;29;20749;-75
2022/04/30 06:47:44;;;;;;;14.47;12.20;;;12.00;99.90;;;;;;4861650;29;20230;-78
2022/04/30 06:50:12;;;;;;;13.37;12.03;;;12.40;99.90;;;;;;4860971;29;20217;-78
2022/04/30 06:58:10;;;;;;;11.90;10.73;;;13.60;99.90;;;;;;4879632;29;20256;-74
2022/04/30 07:03:24;;;;;;;13.17;10.70;;;14.80;99.90;;;;;;4869864;29;20206;-78
2022/04/30 07:05:55;;;;;;;12.00;10.67;;;14.50;99.90;;;;;;4878899;29;20326;-78
2022/04/30 07:08:25;;;;;;;11.40;10.20;;;14.60;99.90;;;;;;4861780;29;20654;-78
2022/04/30 07:10:53;;;;;;;12.63;10.30;;;14.90;99.90;;;;;;4860432;29;20740;-77
2022/04/30 07:13:21;;;;;;;11.33;10.20;;;15.00;99.90;;;;;;4860724;29;20274;-77
2022/04/30 07:15:49;;;;;;;11.57;10.47;;;15.20;99.90;;;;;;4859533;29;20271;-76
2022/04/30 07:18:17;;;;;;;13.93;10.10;;;15.30;99.90;;;;;;4858525;29;20634;-77
2022/04/30 07:20:47;;;;;;;11.40;9.90;;;16.70;99.90;;;;;;4871372;29;20202;-76
2022/04/30 07:23:15;;;;;;;10.67;9.40;;;17.30;99.90;;;;;;4860648;29;20298;-77
2022/04/30 07:25:44;;;;;;;10.07;9.07;;;18.30;95.60;;;;;;4860826;29;20305;-77
2022/04/30 07:28:12;;;;;;;10.47;9.03;;;19.20;93.10;;;;;;4860594;29;20298;-77
2022/04/30 07:30:41;;;;;;;10.20;9.10;;;19.10;92.50;;;;;;4860166;29;20240;-76
2022/04/30 07:33:10;;;;;;;11.67;8.90;;;19.60;91.50;;;;;;4860484;29;20346;-74
2022/04/30 07:35:37;;;;;;;9.03;8.13;;;20.60;90.10;;;;;;4860396;29;20318;-76
2022/04/30 07:38:06;;;;;;;9.80;8.90;;;21.50;88.60;;;;;;4860232;29;20692;-73
2022/04/30 07:40:35;;;;;;;9.20;8.30;;;21.20;84.70;;;;;;4860022;29;20206;-76
2022/04/30 07:43:05;;;;;;;9.23;8.40;;;21.90;81.20;;;;;;4860415;29;20301;-75
2022/04/30 07:45:33;;;;;;;11.80;8.70;;;23.30;78.30;;;;;;4863983;29;20215;-77
2022/04/30 07:48:01;;;;;;;10.93;8.75;;;23.00;71.40;;;;;;4860314;29;20251;-76
2022/04/30 07:50:35;;;;;;;9.57;8.43;;;23.80;73.30;;;;;;4859885;29;20294;-76
2022/04/30 07:53:03;;;;;;;9.35;8.20;;;24.60;69.20;;;;;;4861911;29;20302;-74
2022/04/30 07:55:34;;;;;;;9.23;8.25;;;24.50;67.90;;;;;;4870837;29;20261;-76
2022/04/30 07:58:03;;;;;;;9.75;8.40;;;23.70;68.00;;;;;;4861223;29;20223;-75
2022/04/30 08:00:32;;;;;;;9.18;8.32;;;23.10;71.20;;;;;;4861893;29;20297;-77
2022/04/30 08:03:00;;;;;;;10.07;8.65;;;21.80;73.70;;;;;;4861108;29;20265;-76
2022/04/30 08:05:29;;;;;;;9.73;8.80;;;21.40;75.60;;;;;;4860144;29;20243;-76
2022/04/30 08:07:57;;;;;;;11.90;8.93;;;21.70;75.50;;;;;;4860043;29;20251;-77
2022/04/30 08:10:26;;;;;;;9.63;8.63;;;20.70;76.70;;;;;;4860033;29;20214;-77
2022/04/30 08:12:55;;;;;;;9.83;8.87;;;19.70;79.60;;;;;;4860001;29;20223;-77
2022/04/30 08:15:24;;;;;;;10.60;9.47;;;19.00;81.10;;;;;;4859947;29;20230;-76
2022/04/30 08:17:54;;;;;;;10.63;9.03;;;18.70;82.50;;;;;;4859365;29;20210;-77
2022/04/30 08:20:23;;;;;;;11.80;8.80;;;19.00;88.20;;;;;;4859521;29;20238;-77
2022/04/30 08:22:51;;;;;;;9.57;8.57;;;19.60;83.30;;;;;;4860031;29;20293;-77
2022/04/30 08:25:19;;;;;;;9.53;8.63;;;20.20;81.40;;;;;;4865481;29;20246;-77
2022/04/30 08:27:47;;;;;;;13.83;9.00;;;20.00;80.30;;;;;;4878254;29;20305;-78
2022/04/30 08:30:15;;;;;;;10.30;9.30;;;19.70;78.70;;;;;;4874465;29;20242;-79
2022/04/30 08:32:43;;;;;;;9.80;8.90;;;18.80;83.90;;;;;;4860031;29;20215;-78
2022/04/30 08:35:12;;;;;;;10.67;9.17;;;18.90;85.20;;;;;;4859545;29;20226;-76
2022/04/30 08:38:00;;;;;;;11.03;8.87;;;19.00;83.70;;;;;;4859894;29;20214;-78
2022/04/30 08:40:28;;;;;;;10.40;9.00;;;19.00;81.60;;;;;;4860337;29;20221;-77
2022/04/30 08:43:07;;;;;;;9.77;8.80;;;18.80;81.90;;;;;;4859900;29;20245;-77
2022/04/30 08:45:38;;;;;;;12.13;9.10;;;18.80;84.80;;;;;;4860304;29;20199;-77
2022/04/30 08:48:08;;;;;;;12.93;8.80;;;18.70;83.40;;;;;;4860231;29;20261;-77
2022/04/30 08:50:42;;;;;;;10.10;8.97;;;19.20;83.90;;;;;;4863678;29;20255;-77
2022/04/30 08:53:13;;;;;;;9.53;8.57;;;19.00;86.30;;;;;;4868580;29;20251;-77
2022/04/30 08:55:41;;;;;;;10.30;9.30;;;18.30;86.90;;;;;;4894228;29;20312;-76
2022/04/30 08:58:09;;;;;;;9.63;8.73;;;18.20;88.70;;;;;;4891749;29;20648;-78
2022/04/30 09:00:42;;;;;;;9.73;8.47;;;19.10;88.30;;;;;;4859273;29;20310;-76
2022/04/30 09:03:14;;;;;;;11.37;9.10;;;20.20;80.60;;;;;;4858991;29;20266;-75
2022/04/30 09:05:44;;;;;;;11.57;9.20;;;20.30;82.10;;;;;;4859025;29;20274;-77
2022/04/30 09:08:12;;;;;;;9.10;7.83;;;20.80;81.80;;;;;;4858979;29;20219;-77
2022/04/30 09:10:41;;;;;;;8.97;8.07;;;21.30;81.80;;;;;;4859333;29;20251;-75
2022/04/30 09:13:10;;;;;;;10.00;9.10;;;21.50;79.40;;;;;;4859373;29;20211;-77
2022/04/30 09:15:40;;;;;;;9.63;8.63;;;20.10;79.00;;;;;;4859452;29;20270;-77
2022/04/30 09:18:10;;;;;;;10.33;8.50;;;19.20;80.90;;;;;;4859541;29;20290;-75
2022/04/30 09:20:47;;;;;;;11.33;8.43;;;19.30;83.70;;;;;;4859298;29;20305;-78
2022/04/30 09:23:25;;;;;;;8.77;7.90;;;18.70;83.50;;;;;;4859594;29;20246;-74
2022/04/30 09:25:55;;;;;;;9.80;8.83;;;18.90;83.10;;;;;;4859532;29;20538;-76
2022/04/30 09:28:25;;;;;;;11.80;9.20;;;18.50;84.80;;;;;;4860085;29;20294;-73
2022/04/30 09:31:07;;;;;;;9.63;8.53;;;18.30;85.70;;;;;;4862587;29;20291;-80
2022/04/30 09:33:36;;;;;;;11.07;8.63;;;18.80;89.50;;;;;;4862605;29;20639;-79
2022/04/30 09:38:54;;;;;;;11.70;8.60;;;18.80;87.50;;;;;;4862558;29;20319;-76
2022/04/30 09:41:23;;;;;;;10.90;9.30;;;19.00;86.60;;;;;;4862737;29;20293;-77
2022/04/30 09:44:04;;;;;;;12.13;9.40;;;18.50;86.50;;;;;;4863004;29;20305;-76
2022/04/30 09:46:35;;;;;;;10.10;9.10;;;18.30;85.90;;;;;;4862641;29;20233;-78
2022/04/30 09:54:38;;;;;;;9.80;8.80;;;17.60;90.80;;;;;;4880974;29;20203;-78
2022/04/30 09:57:09;;;;;;;10.60;9.60;;;17.40;90.50;;;;;;4880586;29;20734;-78
2022/04/30 09:59:39;;;;;;;12.90;9.97;;;16.90;91.80;;;;;;4880283;29;20283;-78
2022/04/30 10:02:09;;;;;;;13.63;9.50;;;16.50;91.70;;;;;;4880820;29;20206;-78
2022/04/30 10:04:38;;;;;;;12.67;10.30;;;16.20;91.10;;;;;;4884779;29;20786;-77
2022/04/30 10:07:09;;;;;;;13.60;9.77;;;16.40;92.60;;;;;;4894313;29;20215;-79
2022/04/30 10:09:40;;;;;;;11.70;10.50;;;16.40;92.80;;;;;;4894708;29;20288;-77
2022/04/30 10:12:17;;;;;;;12.37;9.83;;;16.30;92.60;;;;;;4893383;29;20214;-76
2022/04/30 10:15:04;;;;;;;13.00;9.93;;;16.50;92.90;;;;;;4900905;29;20201;-77
2022/04/30 10:17:34;;;;;;;11.17;10.07;;;16.60;93.90;;;;;;4896599;29;20257;-76
2022/04/30 10:20:07;;;;;;;10.67;9.33;;;16.70;93.20;;;;;;4867651;29;20219;-77
2022/04/30 10:22:37;;;;;;;10.20;8.80;;;16.80;92.40;;;;;;4880037;29;20678;-76
2022/04/30 10:25:07;;;;;;;14.20;9.40;;;17.00;92.20;;;;;;4879116;29;20744;-77
2022/04/30 10:27:40;;;;;;;11.93;9.47;;;17.40;92.60;;;;;;4879479;29;20289;-75
2022/04/30 10:30:19;;;;;;;10.97;8.90;;;17.60;91.60;;;;;;4871429;29;20734;-76
2022/04/30 10:33:00;;;;;;;9.80;8.73;;;18.00;90.50;;;;;;4878213;29;20266;-78
2022/04/30 10:35:32;;;;;;;10.53;8.73;;;18.40;90.20;;;;;;4879524;29;20266;-78
2022/04/30 10:38:13;;;;;;;10.03;8.80;;;18.80;91.00;;;;;;4879382;29;20314;-78
2022/04/30 10:40:43;;;;;;;10.13;8.73;;;19.20;87.30;;;;;;4872464;29;20638;-78
2022/04/30 10:43:26;;;;;;;9.20;8.30;;;19.20;90.00;;;;;;4878808;29;20531;-77
2022/04/30 10:45:56;;;;;;;10.90;8.47;;;19.30;88.10;;;;;;4860674;29;20195;-77
2022/04/30 10:48:24;;;;;;;8.63;7.83;;;19.30;90.70;;;;;;4861290;29;20219;-77
2022/04/30 10:51:04;;;;;;;10.10;8.63;;;19.20;88.80;;;;;;4866288;29;20301;-77
2022/04/30 10:53:36;;;;;;;8.83;7.93;;;19.10;87.40;;;;;;4874143;29;20298;-77
2022/04/30 10:56:07;;;;;;;12.23;8.27;;;19.10;86.50;;;;;;4876906;29;20340;-77
2022/04/30 10:58:37;;;;;;;9.07;8.17;;;18.70;88.10;;;;;;4861283;29;20261;-77
2022/04/30 11:01:12;;;;;;;8.80;7.90;;;18.70;88.40;;;;;;4875502;29;20238;-77
2022/04/30 11:03:43;;;;;;;9.40;8.50;;;18.70;87.60;;;;;;4892208;29;20254;-77
2022/04/30 11:06:12;;;;;;;9.60;8.60;;;18.20;90.30;;;;;;4893939;29;20783;-76
2022/04/30 11:08:58;;;;;;;8.70;7.80;;;18.10;90.10;;;;;;4875462;29;20285;-76
2022/04/30 11:11:26;;;;;;;9.30;8.17;;;18.20;90.20;;;;;;4873676;29;20260;-74
2022/04/30 11:14:02;;;;;;;9.60;8.60;;;17.90;90.80;;;;;;4884971;29;20245;-75
2022/04/30 11:16:35;;;;;;;10.77;9.03;;;17.80;91.70;;;;;;4879335;29;20257;-75
2022/04/30 11:19:06;;;;;;;9.80;8.80;;;17.80;90.40;;;;;;4879310;29;20278;-77
2022/04/30 11:21:35;;;;;;;10.07;8.57;;;17.90;90.80;;;;;;4867689;29;20226;-77
2022/04/30 11:24:07;;;;;;;11.03;8.90;;;17.80;91.60;;;;;;4875575;29;20246;-77
2022/04/30 11:26:38;;;;;;;10.97;8.30;;;17.50;91.20;;;;;;4880783;29;20627;-77
2022/04/30 11:29:10;;;;;;;10.07;9.07;;;17.40;92.70;;;;;;4873271;29;20218;-77
2022/04/30 11:31:39;;;;;;;10.20;9.20;;;17.20;93.30;;;;;;4885881;29;20249;-77
2022/04/30 11:34:09;;;;;;;12.63;9.63;;;17.00;92.00;;;;;;4897856;29;20209;-76
2022/04/30 11:36:41;;;;;;;10.40;9.27;;;16.70;92.60;;;;;;4878163;29;20264;-76
2022/04/30 11:39:12;;;;;;;10.50;9.20;;;16.50;93.40;;;;;;4880507;29;20234;-77
2022/04/30 11:41:40;;;;;;;11.87;8.90;;;16.40;93.20;;;;;;4891105;29;20225;-77
2022/04/30 11:44:10;;;;;;;10.83;9.67;;;16.40;92.80;;;;;;4886477;29;20241;-76
2022/04/30 11:46:40;;;;;;;11.20;9.43;;;16.00;93.50;;;;;;4883071;29;20246;-77
2022/04/30 11:49:09;;;;;;;11.10;9.90;;;15.90;95.20;;;;;;4877200;29;20250;-77
2022/04/30 11:51:58;;;;;;;12.17;10.53;;;15.70;94.40;;;;;;4865420;29;20218;-76
2022/04/30 11:54:30;;;;;;;12.73;10.27;;;15.40;94.80;;;;;;4865200;29;20256;-75
2022/04/30 11:56:59;;;;;;;12.27;10.27;;;15.30;94.90;;;;;;4876570;29;20225;-78
2022/04/30 11:59:31;;;;;;;12.27;10.43;;;15.10;94.60;;;;;;4892439;29;20286;-77
2022/04/30 12:02:03;;;;;;;12.83;10.23;;;14.90;95.40;;;;;;4879516;29;20237;-76
2022/04/30 12:04:34;;;;;;;17.33;11.20;;;15.00;96.20;;;;;;4871498;29;20227;-77
2022/04/30 12:07:05;;;;;;;12.30;11.10;;;15.00;96.60;;;;;;4865314;29;20619;-76
2022/04/30 12:09:38;;;;;;;13.43;11.60;;;14.90;95.50;;;;;;4878170;29;20285;-77
2022/04/30 12:12:17;;;;;;;14.67;12.33;;;14.80;96.00;;;;;;4878190;29;20243;-76
2022/04/30 12:14:48;;;;;;;13.47;12.03;;;14.70;97.00;;;;;;4877355;29;20685;-77
2022/04/30 12:17:17;;;;;;;13.53;12.13;;;14.80;97.90;;;;;;4859816;29;20235;-76
2022/04/30 12:25:31;;;;;;;14.67;11.53;;;14.80;98.90;;;;;;4862096;29;20211;-78
2022/04/30 12:28:02;;;;;;;14.87;12.57;;;15.00;99.90;;;;;;4883257;29;20661;-78
2022/04/30 12:30:50;;;;;;;14.97;13.30;;;15.10;99.90;;;;;;4896714;29;20197;-76
2022/04/30 12:33:18;;;;;;;13.70;12.30;;;15.20;99.90;;;;;;4896489;29;20269;-76
2022/04/30 12:35:54;;;;;;;13.67;12.27;;;15.00;99.90;;;;;;4898108;29;20236;-75
2022/04/30 12:38:22;;;;;;;13.53;12.23;;;15.00;99.90;;;;;;4869722;29;20310;-77
2022/04/30 12:40:54;;;;;;;13.67;12.30;;;15.10;99.90;;;;;;4859176;29;20329;-77
2022/04/30 12:43:23;;;;;;;13.43;12.13;;;14.90;99.90;;;;;;4858762;29;20203;-76
2022/04/30 12:45:54;;;;;;;15.80;12.70;;;14.90;99.90;;;;;;4859673;29;20677;-75
2022/04/30 12:48:22;;;;;;;13.03;11.73;;;14.80;99.90;;;;;;4875203;29;20221;-76
2022/04/30 12:50:51;;;;;;;13.40;12.10;;;14.70;99.90;;;;;;4889643;29;20292;-77
2022/04/30 12:53:19;;;;;;;14.97;12.33;;;14.50;99.90;;;;;;4888814;29;20245;-77
2022/04/30 12:55:50;;;;;;;14.97;13.40;;;14.30;99.90;;;;;;4878014;29;20737;-77
2022/04/30 12:58:20;;;;;;;15.93;12.27;;;14.20;99.90;;;;;;4874140;29;20304;-77
2022/04/30 13:00:48;;;;;;;13.93;12.53;;;14.10;99.90;;;;;;4878948;29;20629;-77
2022/04/30 13:03:19;;;;;;;14.00;12.47;;;14.00;99.90;;;;;;4874913;29;20206;-77
2022/04/30 13:05:47;;;;;;;14.60;13.10;;;14.10;99.90;;;;;;4880342;29;20218;-77
2022/04/30 13:08:15;;;;;;;16.77;12.90;;;14.00;99.90;;;;;;4854704;29;20274;-78
2022/04/30 13:13:34;;;;;;;13.93;12.30;;;13.70;99.90;;;;;;4862716;29;20250;-77
2022/04/30 13:16:04;;;;;;;15.03;13.53;;;13.70;99.90;;;;;;4863224;29;20257;-76
2022/04/30 13:18:34;;;;;;;15.50;13.83;;;13.60;99.90;;;;;;4846293;29;20713;-78
2022/04/30 13:21:04;;;;;;;15.07;13.50;;;13.60;99.90;;;;;;4860465;29;20362;-74
2022/04/30 13:23:32;;;;;;;15.30;13.80;;;13.50;99.90;;;;;;4856634;29;20207;-78
2022/04/30 13:26:03;;;;;;;15.83;14.17;;;13.30;99.90;;;;;;4859585;29;20211;-77
2022/04/30 13:28:33;;;;;;;16.90;15.20;;;13.10;99.90;;;;;;4856432;29;20208;-77
2022/04/30 13:31:01;;;;;;;15.70;14.17;;;13.00;99.90;;;;;;4855901;29;20306;-75
2022/04/30 13:33:30;;;;;;;15.90;14.23;;;12.70;99.90;;;;;;4844460;29;20226;-77
2022/04/30 13:35:58;;;;;;;17.07;14.87;;;12.70;99.90;;;;;;4844905;29;20279;-75
2022/04/30 13:38:26;;;;;;;18.30;15.37;;;12.60;99.90;;;;;;4855418;29;20227;-75
2022/04/30 13:40:54;;;;;;;17.33;15.20;;;12.50;99.90;;;;;;4846942;29;20216;-78
2022/04/30 13:43:23;;;;;;;17.20;15.47;;;12.30;99.90;;;;;;4850286;29;20264;-77
2022/04/30 13:45:53;;;;;;;16.93;14.37;;;12.20;99.90;;;;;;4859028;29;20234;-77
2022/04/30 13:48:21;;;;;;;16.27;14.57;;;12.20;99.90;;;;;;4852171;29;20200;-76
2022/04/30 13:50:52;;;;;;;15.70;14.10;;;12.10;99.90;;;;;;4853102;29;20264;-77
2022/04/30 13:53:20;;;;;;;15.77;13.57;;;12.10;99.90;;;;;;4863231;29;20199;-76
2022/04/30 13:55:48;;;;;;;16.97;13.77;;;12.10;99.90;;;;;;4864226;29;20261;-76
2022/04/30 13:58:16;;;;;;;15.20;13.67;;;12.00;99.90;;;;;;4857601;29;20233;-75
2022/04/30 14:00:45;;;;;;;14.70;13.30;;;12.00;99.90;;;;;;4857274;29;20251;-77
2022/04/30 14:03:14;;;;;;;13.73;11.77;;;12.10;99.90;;;;;;4845381;29;20268;-74
2022/04/30 14:05:42;;;;;;;14.17;12.70;;;12.00;99.90;;;;;;4846546;29;20296;-75
2022/04/30 14:08:12;;;;;;;12.87;11.57;;;12.10;99.90;;;;;;4846672;29;20298;-76
2022/04/30 14:10:40;;;;;;;13.97;12.53;;;12.00;99.90;;;;;;4874820;29;20279;-76
2022/04/30 14:15:54;;;;;;;13.93;12.43;;;12.00;99.90;;;;;;4880459;29;20289;-78
2022/04/30 14:18:25;;;;;;;13.87;12.47;;;11.90;99.90;;;;;;4859643;29;20231;-77
2022/04/30 14:20:54;;;;;;;13.27;11.97;;;12.00;99.90;;;;;;4852251;29;20215;-74
2022/04/30 14:23:23;;;;;;;13.83;12.53;;;12.00;99.90;;;;;;4862262;29;20689;-77
2022/04/30 14:25:52;;;;;;;14.83;12.47;;;12.10;99.90;;;;;;4854687;29;20246;-75
2022/04/30 14:28:20;;;;;;;12.90;11.53;;;12.10;99.90;;;;;;4850097;29;20200;-79
2022/04/30 14:30:48;;;;;;;12.97;11.57;;;12.30;99.90;;;;;;4850346;29;20258;-75
2022/04/30 14:33:17;;;;;;;13.83;11.83;;;12.20;99.90;;;;;;4878969;29;20218;-73
2022/04/30 14:35:48;;;;;;;12.17;10.80;;;12.20;99.90;;;;;;4880197;29;20633;-76
2022/04/30 14:38:16;;;;;;;10.80;9.80;;;12.30;99.90;;;;;;4857114;29;20288;-75
2022/04/30 14:40:44;;;;;;;12.27;11.07;;;12.40;99.90;;;;;;4842495;29;20465;-76
2022/04/30 14:43:14;;;;;;;15.07;13.30;;;12.30;99.90;;;;;;4843418;29;20292;-75
2022/04/30 14:45:45;;;;;;;11.90;10.80;;;12.40;99.90;;;;;;4860546;29;20574;-75
2022/04/30 14:48:20;;;;;;;12.30;10.43;;;12.50;99.90;;;;;;4861675;29;20210;-77
2022/04/30 14:50:50;;;;;;;11.63;10.53;;;12.50;99.90;;;;;;4860651;29;20259;-77
2022/04/30 14:53:18;;;;;;;11.73;9.90;;;12.50;99.90;;;;;;4869281;29;20257;-77
2022/04/30 14:55:47;;;;;;;11.40;10.13;;;12.50;99.90;;;;;;4846311;29;20296;-78
2022/04/30 14:58:15;;;;;;;11.07;8.97;;;12.50;99.90;;;;;;4843365;29;20594;-77
2022/04/30 15:00:45;;;;;;;10.77;9.67;;;12.60;99.90;;;;;;4849242;29;20267;-76
2022/04/30 15:03:13;;;;;;;11.77;10.57;;;12.60;99.90;;;;;;4869031;29;20211;-76
2022/04/30 15:05:42;;;;;;;10.50;9.50;;;12.70;99.90;;;;;;4863820;29;20218;-75
2022/04/30 15:08:12;;;;;;;11.23;9.00;;;12.70;99.90;;;;;;4844712;29;20242;-76
2022/04/30 15:10:40;;;;;;;9.30;8.40;;;12.60;99.90;;;;;;4845910;29;20219;-75
2022/04/30 15:13:08;;;;;;;10.53;9.00;;;12.60;99.90;;;;;;4848877;29;20231;-75
2022/04/30 15:15:36;;;;;;;11.13;9.27;;;12.50;99.90;;;;;;4850723;29;20211;-79
2022/04/30 15:18:05;;;;;;;11.73;9.97;;;12.50;99.90;;;;;;4854177;29;20246;-78
2022/04/30 15:20:36;;;;;;;9.63;8.70;;;12.50;99.90;;;;;;4862976;29;20223;-77
2022/04/30 15:23:04;;;;;;;11.13;9.40;;;12.50;99.90;;;;;;4863120;29;20611;-76
2022/04/30 15:25:33;;;;;;;9.93;8.70;;;12.60;99.90;;;;;;4870495;29;20287;-74
2022/04/30 15:28:01;;;;;;;9.63;8.63;;;12.60;99.90;;;;;;4861350;29;20269;-77
2022/04/30 15:30:30;;;;;;;10.77;8.47;;;12.60;99.90;;;;;;4845285;29;20294;-76
2022/04/30 15:32:59;;;;;;;9.80;8.27;;;12.60;99.90;;;;;;4849107;29;20278;-78
2022/04/30 15:35:28;;;;;;;9.60;8.60;;;12.60;99.90;;;;;;4845528;29;20678;-77
2022/04/30 15:37:56;;;;;;;9.37;7.90;;;12.60;99.90;;;;;;4843197;29;20302;-78
2022/04/30 15:40:24;;;;;;;11.40;8.30;;;12.60;99.90;;;;;;4842880;29;20717;-77
2022/04/30 15:42:54;;;;;;;8.63;7.73;;;12.60;99.90;;;;;;4843649;29;20223;-77
2022/04/30 15:45:23;;;;;;;9.80;7.73;;;12.60;99.90;;;;;;4847136;29;20261;-77
2022/04/30 15:53:50;;;;;;;10.40;9.30;;;12.60;99.90;;;;;;4801169;29;20256;-78
2022/04/30 15:56:20;;;;;;;9.90;8.40;;;12.60;99.90;;;;;;4847776;29;20223;-78
2022/04/30 15:58:54;;;;;;;9.90;8.50;;;12.60;99.90;;;;;;4859591;29;20638;-78
2022/04/30 16:01:22;;;;;;;9.80;8.80;;;12.70;99.90;;;;;;4858552;29;20203;-77
2022/04/30 16:03:50;;;;;;;9.77;8.77;;;12.80;99.90;;;;;;4858484;29;20757;-77
2022/04/30 16:06:21;;;;;;;9.37;8.47;;;12.80;99.90;;;;;;4858378;29;20707;-76
2022/04/30 16:08:49;;;;;;;9.10;8.20;;;12.80;99.90;;;;;;4858126;29;20284;-77
2022/04/30 16:11:17;;;;;;;9.67;8.20;;;12.80;99.90;;;;;;4864173;29;20216;-74
2022/04/30 16:13:45;;;;;;;8.73;7.90;;;12.80;99.90;;;;;;4842026;29;20302;-76
2022/04/30 16:16:15;;;;;;;9.30;7.83;;;12.80;99.90;;;;;;4840639;29;20235;-75
2022/04/30 16:18:44;;;;;;;10.90;8.83;;;12.80;99.90;;;;;;4843836;29;20258;-76
2022/04/30 16:21:12;;;;;;;11.87;9.30;;;12.80;99.90;;;;;;4843950;29;20246;-76
2022/04/30 16:23:40;;;;;;;10.60;7.83;;;12.80;99.90;;;;;;4853971;29;20239;-79
2022/04/30 16:26:11;;;;;;;13.07;9.83;;;12.90;99.90;;;;;;4859773;29;20306;-77
2022/04/30 16:28:39;;;;;;;9.47;8.53;;;12.90;99.90;;;;;;4860338;29;20317;-78
2022/04/30 16:31:10;;;;;;;9.23;8.33;;;13.00;99.90;;;;;;4849022;29;20208;-77
2022/04/30 16:33:40;;;;;;;11.00;8.97;;;13.00;99.90;;;;;;4841558;29;20646;-76
2022/04/30 16:36:10;;;;;;;12.23;10.07;;;13.10;99.90;;;;;;4841363;29;20306;-76
2022/04/30 16:38:38;;;;;;;10.00;8.50;;;13.20;99.90;;;;;;4842508;29;20686;-77
2022/04/30 16:41:07;;;;;;;8.17;7.30;;;13.10;99.90;;;;;;4848293;29;20246;-77
2022/04/30 16:43:36;;;;;;;7.57;6.83;;;13.10;99.90;;;;;;4863709;29;20219;-79
2022/04/30 16:46:06;;;;;;;16.30;10.73;;;13.00;99.90;;;;;;4863592;29;20742;-75
2022/04/30 16:48:34;;;;;;;12.80;9.87;;;12.90;99.90;;;;;;4859863;29;20240;-78
2022/04/30 16:53:50;;;;;;;9.77;8.53;;;12.80;99.90;;;;;;4845041;29;20247;-80
2022/04/30 16:59:26;;;;;;;6.87;5.93;;;12.70;99.90;;;;;;4845293;29;20231;-79
2022/04/30 17:01:54;;;;;;;8.57;6.23;;;12.70;99.90;;;;;;4844942;29;20292;-77
2022/04/30 17:04:23;;;;;;;7.53;5.93;;;12.60;99.90;;;;;;4845078;29;20227;-78
2022/04/30 17:06:55;;;;;;;8.47;6.23;;;12.60;99.90;;;;;;4851694;29;20203;-77
2022/04/30 17:09:24;;;;;;;7.13;6.40;;;12.50;99.90;;;;;;4845117;29;20216;-77
2022/04/30 17:11:52;;;;;;;9.90;7.87;;;12.50;99.90;;;;;;4845022;29;20211;-78
2022/04/30 17:14:20;;;;;;;31.87;27.20;;;12.40;99.90;;;;;;4844814;29;20276;-78
2022/04/30 17:16:48;;;;;;;9.53;8.17;;;12.40;99.90;;;;;;4844977;29;20673;-77
2022/04/30 17:19:17;;;;;;;9.60;7.17;;;12.30;99.90;;;;;;4855365;29;20212;-78
2022/04/30 17:21:45;;;;;;;11.80;8.50;;;12.30;99.90;;;;;;4872389;29;20483;-78
2022/04/30 17:24:14;;;;;;;7.17;6.40;;;12.30;99.90;;;;;;4864460;29;20302;-76
2022/04/30 17:26:44;;;;;;;9.27;6.43;;;12.20;99.90;;;;;;4850504;29;20307;-75
2022/04/30 17:29:13;;;;;;;6.93;6.20;;;12.20;99.90;;;;;;4845169;29;20635;-75
2022/04/30 17:40:00;;;;;;;8.67;7.10;;;12.00;99.90;;;;;;4848819;29;20325;-74
2022/04/30 17:42:28;;;;;;;10.80;7.23;;;11.80;99.90;;;;;;4862252;29;20264;-76
2022/04/30 17:44:56;;;;;;;9.37;8.10;;;11.80;99.90;;;;;;4862467;29;20314;-75
2022/04/30 17:47:25;;;;;;;8.60;7.60;;;11.70;99.90;;;;;;4852974;29;20219;-76
2022/04/30 17:49:53;;;;;;;9.80;7.73;;;11.70;99.90;;;;;;4845938;29;20215;-77